Time;durP1;ratioP1;P1;durP2;ratioP2;P2;SDS_P1;SDS_P2;PMS_P1;PMS_P2;Temp;Humidity;BMP_temperature;BMP_pressure;BME280_temperature;BME280_humidity;BME280_pressure;Samples;Min_cycle;Max_cycle;Signal;HPM_P1;HPM_P2
2022/04/20 00:01:16;;;;;;;2.42;1.42;;;11.60;90.30;;;;;;5073061;28;20029;-68
2022/04/20 00:03:42;;;;;;;4.25;1.38;;;11.40;84.30;;;;;;5074127;28;20036;-69
2022/04/20 00:06:08;;;;;;;2.53;1.30;;;11.30;83.70;;;;;;5074016;28;20036;-68
2022/04/20 00:08:34;;;;;;;1.13;0.98;;;11.30;84.10;;;;;;5073544;28;20032;-69
2022/04/20 00:11:01;;;;;;;3.00;1.10;;;11.30;83.40;;;;;;5073717;28;20129;-69
2022/04/20 00:13:30;;;;;;;2.85;1.45;;;11.50;83.00;;;;;;5073822;28;20036;-69
2022/04/20 00:15:57;;;;;;;1.65;0.90;;;11.50;83.10;;;;;;5055808;28;20044;-69
2022/04/20 00:18:23;;;;;;;2.15;1.30;;;11.40;83.70;;;;;;5073562;28;20147;-69
2022/04/20 00:20:49;;;;;;;1.55;1.38;;;11.40;83.40;;;;;;5066300;28;20171;-68
2022/04/20 00:23:15;;;;;;;3.05;1.00;;;11.40;83.20;;;;;;5064997;28;20040;-72
2022/04/20 00:25:41;;;;;;;3.17;1.35;;;11.40;83.00;;;;;;5070332;28;20048;-68
2022/04/20 00:28:07;;;;;;;1.50;1.02;;;11.50;82.60;;;;;;5073626;28;20036;-66
2022/04/20 00:30:33;;;;;;;2.80;1.48;;;11.60;81.30;;;;;;5056257;28;20036;-69
2022/04/20 00:33:00;;;;;;;2.05;0.98;;;11.60;81.30;;;;;;5068994;28;20602;-67
2022/04/20 00:35:26;;;;;;;1.70;1.10;;;11.50;82.50;;;;;;5048398;28;20055;-67
2022/04/20 00:37:52;;;;;;;1.95;1.17;;;11.50;83.00;;;;;;5071627;28;20079;-67
2022/04/20 00:40:17;;;;;;;1.77;0.70;;;11.40;83.40;;;;;;5073506;28;20064;-67
2022/04/20 00:42:43;;;;;;;2.78;1.17;;;11.50;82.60;;;;;;5073054;28;20105;-67
2022/04/20 00:45:11;;;;;;;1.55;1.10;;;11.30;83.40;;;;;;5073362;28;20496;-68
2022/04/20 00:47:38;;;;;;;2.92;1.13;;;11.20;82.80;;;;;;5073256;28;20094;-67
2022/04/20 00:50:08;;;;;;;2.17;1.13;;;11.20;83.20;;;;;;5073375;28;20036;-67
2022/04/20 00:52:33;;;;;;;2.45;1.35;;;11.30;83.00;;;;;;5073156;28;20032;-67
2022/04/20 00:54:59;;;;;;;3.95;1.10;;;11.40;82.80;;;;;;5073037;28;20036;-67
2022/04/20 00:57:26;;;;;;;2.00;1.20;;;11.30;82.00;;;;;;5073110;28;20109;-67
2022/04/20 00:59:55;;;;;;;2.70;1.45;;;11.30;82.80;;;;;;5072988;28;20093;-67
2022/04/20 01:02:22;;;;;;;2.47;0.95;;;11.20;83.00;;;;;;5072905;28;20044;-66
2022/04/20 01:04:48;;;;;;;1.63;1.08;;;11.30;83.10;;;;;;5073202;28;20044;-67
2022/04/20 01:07:16;;;;;;;2.60;1.38;;;11.20;83.20;;;;;;5073116;28;20045;-67
2022/04/20 01:09:43;;;;;;;2.90;1.35;;;11.30;83.10;;;;;;5073082;28;20044;-67
2022/04/20 01:12:10;;;;;;;3.08;1.10;;;11.20;84.00;;;;;;5073044;28;20094;-67
2022/04/20 01:14:37;;;;;;;2.50;1.38;;;11.20;84.40;;;;;;5072481;28;20047;-67
2022/04/20 01:17:04;;;;;;;1.98;1.08;;;11.20;83.90;;;;;;5071699;28;20538;-67
2022/04/20 01:19:38;;;;;;;2.80;1.23;;;11.10;84.30;;;;;;5072531;28;20473;-67
2022/04/20 01:22:05;;;;;;;6.07;0.88;;;11.10;83.70;;;;;;5067926;28;20132;-67
2022/04/20 01:24:32;;;;;;;5.38;1.40;;;11.10;83.80;;;;;;5072812;28;20043;-67
2022/04/20 01:26:58;;;;;;;3.63;1.27;;;11.20;84.00;;;;;;5072854;28;20064;-67
2022/04/20 01:29:26;;;;;;;3.42;1.23;;;11.20;83.60;;;;;;5072811;28;20072;-67
2022/04/20 01:31:51;;;;;;;3.72;1.50;;;11.30;83.20;;;;;;5072730;28;20071;-67
2022/04/20 01:34:17;;;;;;;2.55;1.20;;;11.20;84.20;;;;;;5073014;28;20072;-67
2022/04/20 01:36:43;;;;;;;2.17;1.50;;;11.10;84.10;;;;;;5072824;28;20391;-67
2022/04/20 01:39:09;;;;;;;2.28;1.20;;;11.10;83.60;;;;;;5072820;28;20036;-69
2022/04/20 01:41:34;;;;;;;4.95;1.38;;;11.10;83.90;;;;;;5072870;28;20028;-67
2022/04/20 01:44:00;;;;;;;3.72;1.48;;;11.10;83.90;;;;;;5072713;28;20430;-67
2022/04/20 01:46:26;;;;;;;2.33;1.20;;;11.10;83.70;;;;;;5069805;28;20040;-67
2022/04/20 01:48:52;;;;;;;2.47;1.15;;;11.00;84.00;;;;;;5056674;28;20048;-67
2022/04/20 01:54:02;;;;;;;2.45;1.30;;;11.00;83.90;;;;;;5056696;28;20040;-68
2022/04/20 01:56:28;;;;;;;1.90;1.10;;;11.20;84.00;;;;;;5056476;28;20032;-68
2022/04/20 01:58:57;;;;;;;2.38;1.23;;;11.10;84.50;;;;;;5056520;28;20036;-68
2022/04/20 02:04:07;;;;;;;3.28;1.20;;;11.00;84.30;;;;;;5056362;28;20064;-69
2022/04/20 02:06:33;;;;;;;2.38;1.38;;;11.30;90.00;;;;;;5056338;28;20500;-69
2022/04/20 02:08:59;;;;;;;2.20;1.10;;;11.30;87.10;;;;;;5065839;28;20067;-68
2022/04/20 02:11:25;;;;;;;1.60;1.00;;;11.20;83.10;;;;;;5076246;28;20483;-67
2022/04/20 02:13:50;;;;;;;3.55;1.13;;;11.20;84.20;;;;;;5076244;28;20045;-68
2022/04/20 02:16:17;;;;;;;4.38;1.35;;;11.10;85.30;;;;;;5076159;28;20033;-68
2022/04/20 02:18:42;;;;;;;3.63;1.23;;;10.80;86.30;;;;;;5075853;28;20051;-67
2022/04/20 02:21:08;;;;;;;3.92;1.40;;;10.60;87.00;;;;;;5075731;28;20040;-66
2022/04/20 02:23:34;;;;;;;2.03;1.33;;;10.50;87.20;;;;;;5075827;28;20105;-67
2022/04/20 02:26:00;;;;;;;3.88;1.40;;;10.70;85.70;;;;;;5075975;28;20040;-67
2022/04/20 02:28:25;;;;;;;1.52;1.00;;;10.50;86.10;;;;;;5076088;28;20047;-67
2022/04/20 02:30:51;;;;;;;2.17;1.25;;;10.80;85.10;;;;;;5075914;28;20128;-67
2022/04/20 02:33:17;;;;;;;2.42;1.50;;;10.80;84.50;;;;;;5075725;28;20082;-67
2022/04/20 02:35:43;;;;;;;2.00;1.30;;;10.90;84.70;;;;;;5075761;28;20112;-67
2022/04/20 02:38:10;;;;;;;2.10;1.50;;;10.90;85.40;;;;;;5075681;28;20048;-67
2022/04/20 02:40:40;;;;;;;2.20;1.48;;;10.70;85.80;;;;;;5076087;28;20036;-67
2022/04/20 02:43:06;;;;;;;2.35;1.33;;;10.50;86.80;;;;;;5075933;28;20079;-67
2022/04/20 02:45:32;;;;;;;2.58;1.23;;;10.50;85.70;;;;;;5074841;28;20119;-66
2022/04/20 02:47:57;;;;;;;3.13;1.30;;;10.60;85.70;;;;;;5074361;28;20487;-67
2022/04/20 02:50:23;;;;;;;2.58;1.50;;;10.70;86.50;;;;;;5074242;28;20047;-67
2022/04/20 02:52:49;;;;;;;4.80;1.38;;;10.60;86.10;;;;;;5074453;28;20044;-67
2022/04/20 02:55:15;;;;;;;1.25;1.00;;;10.50;85.70;;;;;;5073825;28;20041;-67
2022/04/20 02:57:40;;;;;;;2.13;1.13;;;10.50;86.20;;;;;;5074022;28;20537;-67
2022/04/20 03:00:07;;;;;;;1.60;1.10;;;10.60;85.60;;;;;;5074347;28;20082;-66
2022/04/20 03:02:33;;;;;;;1.73;1.20;;;10.60;85.30;;;;;;5074321;28;20403;-66
2022/04/20 03:04:58;;;;;;;2.65;1.38;;;10.50;85.40;;;;;;5074206;28;20037;-67
2022/04/20 03:07:24;;;;;;;2.78;1.23;;;10.30;85.80;;;;;;5074237;28;20048;-67
2022/04/20 03:09:50;;;;;;;3.55;1.23;;;10.50;85.30;;;;;;5062905;28;20182;-67
2022/04/20 03:12:16;;;;;;;5.28;1.50;;;10.40;85.50;;;;;;5064114;28;20746;-67
2022/04/20 03:14:41;;;;;;;2.47;1.20;;;10.50;85.70;;;;;;5073176;28;20036;-67
2022/04/20 03:17:07;;;;;;;5.75;1.48;;;10.50;85.30;;;;;;5073876;28;20050;-67
2022/04/20 03:19:33;;;;;;;2.50;1.40;;;10.70;84.20;;;;;;5074023;28;20040;-67
2022/04/20 03:21:59;;;;;;;3.20;1.23;;;10.70;85.00;;;;;;5073882;28;20041;-67
2022/04/20 03:24:24;;;;;;;2.22;1.20;;;10.50;86.20;;;;;;5073904;28;20132;-67
2022/04/20 03:26:50;;;;;;;1.63;1.35;;;10.00;87.40;;;;;;5073473;28;20114;-67
2022/04/20 03:29:16;;;;;;;6.18;1.33;;;10.10;86.60;;;;;;5074037;28;20059;-67
2022/04/20 03:31:42;;;;;;;4.57;1.45;;;10.20;86.20;;;;;;5073952;28;20041;-67
2022/04/20 03:34:08;;;;;;;1.50;1.25;;;10.20;87.00;;;;;;5073865;28;20063;-67
2022/04/20 03:36:35;;;;;;;2.10;1.27;;;10.30;86.60;;;;;;5073602;28;20036;-67
2022/04/20 03:39:01;;;;;;;1.45;1.08;;;10.30;86.10;;;;;;5073562;28;20147;-67
2022/04/20 03:41:27;;;;;;;4.00;1.80;;;10.20;86.40;;;;;;5073566;28;20044;-67
2022/04/20 03:43:53;;;;;;;2.10;1.33;;;10.20;87.80;;;;;;5073516;28;20036;-67
2022/04/20 03:46:19;;;;;;;2.53;1.30;;;10.10;88.10;;;;;;5065093;28;223176;-69
2022/04/20 03:48:45;;;;;;;1.60;1.23;;;10.10;88.50;;;;;;5068308;28;20043;-68
2022/04/20 03:51:11;;;;;;;3.63;1.45;;;10.20;86.50;;;;;;5074431;28;20048;-67
2022/04/20 03:53:37;;;;;;;4.70;1.70;;;10.30;85.90;;;;;;5074446;28;20036;-69
2022/04/20 03:56:03;;;;;;;3.20;1.50;;;10.20;86.50;;;;;;5074360;28;20045;-68
2022/04/20 03:58:29;;;;;;;2.85;1.48;;;10.00;87.10;;;;;;5074306;28;20044;-67
2022/04/20 04:00:55;;;;;;;2.47;1.55;;;9.90;87.50;;;;;;5074211;28;20127;-67
2022/04/20 04:03:21;;;;;;;3.38;1.10;;;9.90;87.40;;;;;;5074264;28;20032;-67
2022/04/20 04:05:46;;;;;;;2.58;1.38;;;10.00;87.60;;;;;;5074123;28;20035;-67
2022/04/20 04:08:12;;;;;;;2.47;1.30;;;9.80;88.40;;;;;;5073191;28;20071;-67
2022/04/20 04:10:39;;;;;;;3.35;1.40;;;9.90;87.40;;;;;;5073980;28;20101;-67
2022/04/20 04:13:06;;;;;;;5.20;1.40;;;10.10;86.70;;;;;;5073845;28;20063;-67
2022/04/20 04:15:33;;;;;;;3.53;1.38;;;10.00;86.90;;;;;;5073886;28;20072;-67
2022/04/20 04:18:01;;;;;;;4.82;1.48;;;10.10;87.40;;;;;;5073643;28;20048;-68
2022/04/20 04:20:27;;;;;;;4.32;1.40;;;10.00;87.00;;;;;;5073829;28;20046;-67
2022/04/20 04:22:54;;;;;;;2.88;1.30;;;9.90;87.40;;;;;;5073797;28;20561;-67
2022/04/20 04:25:20;;;;;;;4.53;1.50;;;10.00;86.60;;;;;;5073692;28;20085;-67
2022/04/20 04:27:47;;;;;;;9.98;1.67;;;9.70;89.30;;;;;;5073654;28;20036;-67
2022/04/20 04:30:13;;;;;;;3.03;1.40;;;9.70;89.50;;;;;;5073226;28;20557;-67
2022/04/20 04:32:39;;;;;;;4.63;1.50;;;9.90;87.80;;;;;;5073166;28;20044;-67
2022/04/20 04:35:06;;;;;;;4.45;1.50;;;9.90;88.90;;;;;;5073540;28;20024;-67
2022/04/20 04:37:34;;;;;;;8.43;1.52;;;9.60;89.30;;;;;;5073483;28;20049;-68
2022/04/20 04:40:00;;;;;;;4.55;1.30;;;9.30;89.70;;;;;;5073218;28;20032;-67
2022/04/20 04:42:26;;;;;;;4.60;1.30;;;9.30;90.00;;;;;;5073396;28;20552;-67
2022/04/20 04:44:52;;;;;;;2.85;1.30;;;9.20;90.70;;;;;;5073481;28;20059;-67
2022/04/20 04:50:04;;;;;;;3.30;1.48;;;9.40;90.50;;;;;;5073075;28;20078;-67
2022/04/20 04:52:30;;;;;;;3.47;1.55;;;9.30;90.60;;;;;;5073071;28;20029;-67
2022/04/20 04:54:55;;;;;;;2.95;1.70;;;9.20;90.40;;;;;;5073276;28;20112;-66
2022/04/20 04:57:21;;;;;;;6.80;2.03;;;9.50;89.40;;;;;;5073224;28;20040;-68
2022/04/20 04:59:47;;;;;;;4.75;2.28;;;9.20;90.70;;;;;;5073116;28;20091;-67
2022/04/20 05:02:13;;;;;;;3.95;1.73;;;9.00;90.40;;;;;;5073290;28;20373;-67
2022/04/20 05:04:42;;;;;;;3.00;1.40;;;9.00;90.80;;;;;;5073089;28;20403;-67
2022/04/20 05:07:09;;;;;;;4.40;1.65;;;8.80;91.00;;;;;;5072954;28;20415;-68
2022/04/20 05:09:35;;;;;;;1.55;1.23;;;8.80;91.30;;;;;;5073036;28;20123;-68
2022/04/20 05:12:01;;;;;;;3.20;1.58;;;8.90;91.20;;;;;;5073031;28;20027;-67
2022/04/20 05:14:27;;;;;;;2.53;1.30;;;9.00;91.10;;;;;;5073093;28;20468;-67
2022/04/20 05:16:55;;;;;;;4.13;1.50;;;9.20;90.70;;;;;;5072954;28;20036;-67
2022/04/20 05:19:21;;;;;;;4.68;1.58;;;9.20;90.80;;;;;;5072886;28;20048;-68
2022/04/20 05:21:47;;;;;;;2.72;1.48;;;9.30;90.80;;;;;;5072932;28;20093;-67
2022/04/20 05:24:14;;;;;;;3.50;1.30;;;9.40;90.50;;;;;;5072920;28;20040;-67
2022/04/20 05:26:40;;;;;;;3.60;1.42;;;9.50;91.10;;;;;;5072607;28;20056;-67
2022/04/20 05:29:07;;;;;;;2.95;1.60;;;9.50;91.00;;;;;;5072742;28;20116;-67
2022/04/20 05:31:32;;;;;;;4.40;1.52;;;9.50;90.70;;;;;;5072701;28;20035;-67
2022/04/20 05:33:58;;;;;;;4.07;1.60;;;9.50;90.80;;;;;;5072151;28;20044;-67
2022/04/20 05:36:24;;;;;;;2.33;1.33;;;9.60;90.60;;;;;;5072590;28;20440;-67
2022/04/20 05:41:39;;;;;;;2.95;1.67;;;9.80;90.30;;;;;;5052774;28;20036;-68
2022/04/20 05:44:06;;;;;;;2.25;1.55;;;9.90;90.60;;;;;;5052793;28;20051;-67
2022/04/20 05:46:33;;;;;;;4.97;1.50;;;10.00;90.60;;;;;;5052629;28;20068;-68
2022/04/20 05:48:59;;;;;;;2.40;1.30;;;10.10;90.60;;;;;;5065863;28;20155;-68
2022/04/20 05:51:25;;;;;;;6.05;1.88;;;10.10;91.10;;;;;;5072516;28;20067;-67
2022/04/20 05:53:51;;;;;;;4.70;1.73;;;10.10;90.90;;;;;;5064498;28;20444;-68
2022/04/20 05:56:16;;;;;;;7.10;1.90;;;10.10;91.00;;;;;;5072712;28;20056;-68
2022/04/20 05:58:44;;;;;;;9.68;1.80;;;10.10;90.70;;;;;;5072444;28;20460;-67
2022/04/20 06:01:10;;;;;;;2.58;1.40;;;10.20;90.60;;;;;;5072582;28;20410;-67
2022/04/20 06:03:36;;;;;;;3.70;1.60;;;10.40;90.30;;;;;;5072464;28;20046;-67
2022/04/20 06:06:04;;;;;;;5.22;2.13;;;10.60;90.00;;;;;;5072631;28;20040;-68
2022/04/20 06:08:30;;;;;;;5.22;1.70;;;10.90;90.00;;;;;;5072248;28;20051;-67
2022/04/20 06:10:58;;;;;;;3.40;1.45;;;11.00;90.40;;;;;;5072442;28;20063;-67
2022/04/20 06:13:24;;;;;;;2.55;1.52;;;11.10;91.20;;;;;;5072138;28;20361;-67
2022/04/20 06:15:51;;;;;;;2.85;1.75;;;11.00;91.90;;;;;;5072509;28;20044;-67
2022/04/20 06:18:17;;;;;;;3.33;1.70;;;11.00;92.80;;;;;;5072251;28;20049;-67
2022/04/20 06:20:42;;;;;;;4.30;1.45;;;11.00;92.80;;;;;;5072381;28;20040;-67
2022/04/20 06:23:09;;;;;;;3.15;1.35;;;10.90;91.90;;;;;;5068310;28;20067;-67
2022/04/20 06:25:34;;;;;;;3.95;1.48;;;10.90;90.90;;;;;;5072389;28;20427;-67
2022/04/20 06:28:01;;;;;;;4.10;1.80;;;10.90;91.10;;;;;;5072405;28;20055;-67
2022/04/20 06:30:26;;;;;;;3.28;1.30;;;11.00;90.60;;;;;;5072603;28;20519;-67
2022/04/20 06:32:52;;;;;;;2.90;1.40;;;11.20;91.00;;;;;;5076033;28;20040;-67
2022/04/20 06:35:18;;;;;;;5.60;2.15;;;11.20;91.40;;;;;;5075882;28;20217;-68
2022/04/20 06:37:44;;;;;;;8.05;2.10;;;11.20;92.90;;;;;;5075657;28;20549;-69
2022/04/20 06:40:09;;;;;;;4.15;2.05;;;11.30;92.80;;;;;;5075812;28;20041;-68
2022/04/20 06:42:35;;;;;;;4.22;1.80;;;11.20;92.10;;;;;;5075622;28;20048;-68
2022/04/20 06:45:02;;;;;;;10.93;2.20;;;11.40;92.80;;;;;;5075793;28;20055;-68
2022/04/20 06:47:29;;;;;;;5.78;1.65;;;11.40;92.80;;;;;;5075773;28;20036;-68
2022/04/20 06:49:55;;;;;;;3.22;1.60;;;11.50;93.30;;;;;;5076056;28;20072;-68
2022/04/20 07:00:35;;;;;;;2.67;2.13;;;12.20;99.90;;;;;;5075587;28;20043;-67
2022/04/20 07:03:02;;;;;;;5.43;2.13;;;11.80;99.90;;;;;;5069165;28;20040;-67
2022/04/20 07:05:28;;;;;;;3.17;1.90;;;11.70;99.90;;;;;;5075653;28;20036;-68
2022/04/20 07:07:53;;;;;;;3.67;2.10;;;11.60;99.90;;;;;;5063635;28;20044;-67
2022/04/20 07:10:19;;;;;;;6.68;1.65;;;11.70;99.90;;;;;;5072294;28;20500;-68
2022/04/20 07:12:45;;;;;;;4.97;1.95;;;11.70;99.90;;;;;;5068044;28;20037;-68
2022/04/20 07:15:11;;;;;;;2.40;1.77;;;11.90;99.90;;;;;;5061687;28;20495;-68
2022/04/20 07:17:37;;;;;;;30.77;18.38;;;12.10;99.90;;;;;;5073421;28;20419;-67
2022/04/20 07:20:03;;;;;;;5.05;2.08;;;12.20;99.90;;;;;;5074893;28;20040;-68
2022/04/20 07:22:30;;;;;;;3.25;1.92;;;;;;;;;;5074916;28;20036;-69
2022/04/20 07:24:56;;;;;;;6.32;2.20;;;;;;;;;;5063026;28;20033;-69
2022/04/20 07:27:21;;;;;;;2.78;1.80;;;12.60;99.90;;;;;;5059086;28;20403;-69
2022/04/20 07:29:47;;;;;;;3.35;1.95;;;12.60;99.90;;;;;;5072230;28;20037;-69
2022/04/20 07:32:13;;;;;;;4.53;2.30;;;13.10;91.70;;;;;;5072326;28;20033;-68
2022/04/20 07:34:38;;;;;;;3.67;2.20;;;13.00;92.30;;;;;;5072197;28;20040;-68
2022/04/20 07:37:04;;;;;;;5.30;2.38;;;13.20;92.00;;;;;;5071799;28;20059;-68
2022/04/20 07:39:30;;;;;;;4.28;1.75;;;13.50;91.90;;;;;;5072260;28;20131;-68
2022/04/20 07:41:56;;;;;;;6.35;2.20;;;13.70;90.50;;;;;;5070964;28;20040;-68
2022/04/20 07:44:23;;;;;;;2.95;2.00;;;13.60;91.20;;;;;;5071368;28;20048;-69
2022/04/20 07:46:49;;;;;;;3.72;1.88;;;13.50;91.60;;;;;;5072405;28;20045;-69
2022/04/20 07:51:59;;;;;;;5.05;2.40;;;14.20;90.90;;;;;;5073693;28;20458;-69
2022/04/20 07:54:25;;;;;;;2.55;1.80;;;13.90;89.30;;;;;;5073946;28;20203;-69
2022/04/20 07:56:51;;;;;;;2.55;1.95;;;14.10;90.50;;;;;;5071135;28;20131;-69
2022/04/20 07:59:17;;;;;;;2.50;1.60;;;14.30;91.40;;;;;;5072326;28;20064;-69
2022/04/20 08:01:42;;;;;;;3.63;1.67;;;14.80;90.20;;;;;;5066993;28;20526;-69
2022/04/20 08:04:08;;;;;;;5.03;1.48;;;14.70;89.20;;;;;;5051753;28;20194;-69
2022/04/20 08:06:35;;;;;;;6.32;1.98;;;;;;;;;;5051967;28;20048;-69
2022/04/20 08:09:01;;;;;;;3.75;1.50;;;;;;;;;;5051438;28;20041;-69
2022/04/20 08:11:27;;;;;;;2.58;2.00;;;15.30;89.10;;;;;;5051045;28;20134;-68
2022/04/20 08:14:11;;;;;;;4.15;2.13;;;;;;;;;;5051453;28;20512;-69
2022/04/20 08:16:38;;;;;;;3.45;1.90;;;15.90;89.10;;;;;;5070534;28;20048;-68
2022/04/20 08:19:06;;;;;;;4.28;1.88;;;15.60;87.30;;;;;;5071772;28;20628;-68
2022/04/20 08:21:32;;;;;;;3.95;1.80;;;15.60;87.20;;;;;;5071808;28;20041;-69
2022/04/20 08:23:58;;;;;;;5.72;1.80;;;;;;;;;;5071058;28;20462;-69
2022/04/20 08:26:24;;;;;;;3.90;1.88;;;16.40;99.90;;;;;;5071318;28;20051;-69
2022/04/20 08:28:50;;;;;;;5.35;2.00;;;16.10;84.70;;;;;;5054223;28;20059;-69
2022/04/20 08:31:16;;;;;;;2.53;1.60;;;16.40;87.80;;;;;;5073527;28;20127;-69
2022/04/20 08:33:42;;;;;;;3.85;1.80;;;;;;;;;;5072180;28;20105;-69
2022/04/20 08:36:11;;;;;;;7.57;2.20;;;16.60;87.70;;;;;;5071077;28;20449;-69
2022/04/20 08:38:38;;;;;;;6.15;2.00;;;;;;;;;;5070743;28;20491;-68
2022/04/20 08:41:04;;;;;;;4.13;1.67;;;17.30;85.50;;;;;;5070085;28;20037;-69
2022/04/20 08:43:32;;;;;;;4.38;1.67;;;16.90;83.40;;;;;;5071581;28;20044;-68
2022/04/20 08:46:02;;;;;;;3.45;1.60;;;17.30;86.20;;;;;;5067866;28;20101;-69
2022/04/20 08:48:29;;;;;;;4.05;1.60;;;17.40;83.80;;;;;;5061822;28;20123;-69
2022/04/20 08:50:55;;;;;;;3.22;1.50;;;17.50;83.50;;;;;;5055176;28;20052;-69
2022/04/20 08:53:21;;;;;;;4.35;2.10;;;17.60;84.50;;;;;;5050337;28;20037;-68
2022/04/20 08:55:47;;;;;;;2.58;1.65;;;17.80;83.80;;;;;;5050041;28;20087;-68
2022/04/20 08:58:15;;;;;;;3.33;1.60;;;17.90;85.50;;;;;;5050801;28;20508;-68
2022/04/20 09:00:41;;;;;;;3.80;1.83;;;17.90;82.40;;;;;;5051124;28;20119;-68
2022/04/20 09:03:07;;;;;;;3.28;2.00;;;18.00;81.80;;;;;;5055281;28;20575;-68
2022/04/20 09:05:34;;;;;;;3.30;1.58;;;18.30;83.50;;;;;;5050778;28;20535;-68
2022/04/20 09:08:11;;;;;;;1.90;1.45;;;18.50;83.50;;;;;;5056599;28;20031;-69
2022/04/20 09:10:38;;;;;;;2.65;1.67;;;18.70;84.90;;;;;;5070225;28;20071;-68
2022/04/20 09:13:10;;;;;;;5.35;1.80;;;19.10;82.20;;;;;;5070711;28;20495;-68
2022/04/20 09:15:38;;;;;;;4.13;1.73;;;18.50;82.00;;;;;;5070923;28;20074;-68
2022/04/20 09:18:07;;;;;;;4.50;1.25;;;18.60;83.70;;;;;;5070620;28;20500;-68
2022/04/20 09:20:35;;;;;;;3.28;1.60;;;18.80;85.50;;;;;;5070735;28;20089;-68
2022/04/20 09:23:08;;;;;;;2.70;1.45;;;18.30;82.30;;;;;;5070972;28;20051;-68
2022/04/20 09:25:36;;;;;;;2.63;1.63;;;18.70;86.50;;;;;;5070191;28;20535;-69
2022/04/20 09:28:06;;;;;;;3.05;1.58;;;18.80;83.20;;;;;;5070764;28;20043;-69
2022/04/20 09:30:38;;;;;;;5.05;1.55;;;18.70;82.60;;;;;;5071062;28;20040;-69
2022/04/20 09:33:07;;;;;;;6.63;1.98;;;18.40;82.60;;;;;;5070935;28;20040;-68
2022/04/20 09:35:42;;;;;;;3.15;1.98;;;18.40;85.80;;;;;;5070491;28;20068;-69
2022/04/20 09:38:08;;;;;;;5.43;1.83;;;18.60;84.80;;;;;;5061782;28;20044;-68
2022/04/20 09:40:39;;;;;;;5.63;2.28;;;18.70;82.80;;;;;;5057021;28;20067;-68
2022/04/20 09:43:13;;;;;;;2.40;1.55;;;18.90;82.40;;;;;;5062772;28;20052;-68
2022/04/20 09:45:41;;;;;;;4.43;1.80;;;18.90;83.00;;;;;;5058275;28;20052;-68
2022/04/20 09:51:13;;;;;;;9.02;2.38;;;18.90;81.90;;;;;;5068318;28;20086;-69
2022/04/20 09:53:40;;;;;;;10.63;1.90;;;18.80;82.60;;;;;;5070446;28;20037;-68
2022/04/20 09:56:20;;;;;;;2.80;1.65;;;19.10;82.50;;;;;;5070916;28;20047;-68
2022/04/20 09:58:56;;;;;;;4.47;1.52;;;19.00;89.40;;;;;;5070214;28;20083;-69
2022/04/20 10:01:31;;;;;;;7.57;1.80;;;18.70;82.80;;;;;;5069858;28;20125;-68
2022/04/20 10:03:58;;;;;;;3.00;1.70;;;19.10;84.40;;;;;;5071111;28;20435;-69
2022/04/20 10:06:24;;;;;;;3.70;1.67;;;19.00;82.60;;;;;;5073448;28;20116;-68
2022/04/20 10:08:50;;;;;;;4.40;1.83;;;18.50;82.30;;;;;;5073704;28;20088;-68
2022/04/20 10:11:16;;;;;;;2.83;1.58;;;18.20;81.50;;;;;;5073264;28;20049;-69
2022/04/20 10:13:43;;;;;;;1.75;1.45;;;18.20;81.40;;;;;;5073957;28;20033;-69
2022/04/20 10:16:12;;;;;;;2.63;1.48;;;17.80;79.40;;;;;;5071835;28;20048;-69
2022/04/20 10:18:40;;;;;;;9.57;1.60;;;18.00;80.20;;;;;;5065179;28;20736;-68
2022/04/20 10:21:11;;;;;;;2.60;1.40;;;18.70;81.00;;;;;;5075307;28;20048;-69
2022/04/20 10:23:43;;;;;;;;;;;19.00;79.20;;;;;;5091929;28;20047;-69
2022/04/20 10:26:10;;;;;;;5.45;1.90;;;18.90;76.90;;;;;;5088268;28;19913;-68
2022/04/20 10:28:54;;;;;;;2.65;1.38;;;18.50;76.70;;;;;;5053656;28;20044;-68
2022/04/20 10:31:26;;;;;;;2.53;1.20;;;18.30;80.00;;;;;;5063130;28;20040;-68
2022/04/20 10:33:54;;;;;;;3.83;1.52;;;18.90;73.90;;;;;;5037286;28;20029;-68
2022/04/20 10:36:38;;;;;;;5.28;1.45;;;18.60;72.40;;;;;;5053858;28;20526;-68
2022/04/20 10:39:22;;;;;;;3.72;1.20;;;18.90;76.00;;;;;;5069360;28;20086;-68
2022/04/20 10:42:19;;;;;;;3.88;1.30;;;18.60;77.80;;;;;;5073482;28;20043;-68
2022/04/20 10:45:00;;;;;;;2.22;1.25;;;18.70;76.80;;;;;;5074727;28;20123;-68
2022/04/20 10:47:38;;;;;;;5.03;1.30;;;18.80;75.80;;;;;;5073524;28;20598;-69
2022/04/20 10:50:30;;;;;;;3.53;1.83;;;18.60;76.60;;;;;;5055649;28;20040;-69
2022/04/20 10:53:04;;;;;;;5.50;1.70;;;18.70;78.80;;;;;;5073156;28;20041;-68
2022/04/20 10:55:36;;;;;;;3.03;1.52;;;19.00;79.60;;;;;;5062829;28;20041;-67
2022/04/20 10:58:19;;;;;;;2.90;1.50;;;19.70;78.30;;;;;;5052954;28;20056;-67
2022/04/20 11:00:45;;;;;;;2.63;1.50;;;19.60;76.90;;;;;;5055129;28;20040;-68
2022/04/20 11:03:12;;;;;;;3.08;1.33;;;19.70;78.00;;;;;;5052979;28;20041;-68
2022/04/20 11:05:55;;;;;;;5.53;2.03;;;19.20;78.60;;;;;;5058804;28;20570;-68
2022/04/20 11:08:25;;;;;;;4.45;1.52;;;19.30;79.90;;;;;;5061864;28;20148;-68
2022/04/20 11:19:48;;;;;;;11.02;3.67;;;19.70;76.10;;;;;;5060243;28;20162;-67
2022/04/20 11:22:14;;;;;;;85.45;39.53;;;20.40;82.10;;;;;;5063196;28;20037;-67
2022/04/20 11:24:40;;;;;;;12.48;6.70;;;20.80;80.20;;;;;;5063632;28;20542;-68
2022/04/20 11:27:07;;;;;;;5.30;2.75;;;20.70;75.80;;;;;;5065343;28;20062;-68
2022/04/20 11:29:33;;;;;;;2.60;1.70;;;20.30;75.90;;;;;;5062407;28;20045;-69
2022/04/20 11:32:03;;;;;;;8.45;2.67;;;20.00;74.80;;;;;;5064894;28;20024;-69
2022/04/20 11:34:33;;;;;;;5.38;2.00;;;20.40;77.20;;;;;;5065408;28;20404;-68
2022/04/20 11:37:00;;;;;;;8.48;3.55;;;20.30;77.60;;;;;;5063874;28;20480;-68
2022/04/20 11:39:28;;;;;;;5.85;2.58;;;20.00;77.60;;;;;;5063988;28;20481;-68
2022/04/20 11:42:05;;;;;;;8.70;2.80;;;19.70;73.90;;;;;;5065255;28;20446;-67
2022/04/20 11:44:35;;;;;;;4.43;2.33;;;19.90;76.90;;;;;;5065101;28;20076;-68
2022/04/20 11:47:03;;;;;;;;;;;20.00;77.10;;;;;;5064293;28;20094;-70
2022/04/20 11:49:32;;;;;;;2.80;1.80;;;19.90;74.40;;;;;;5063553;28;19988;-68
2022/04/20 11:51:58;;;;;;;4.57;2.20;;;19.60;74.80;;;;;;5062887;28;20516;-68
2022/04/20 11:54:26;;;;;;;4.07;2.03;;;19.80;76.30;;;;;;5065459;28;20086;-68
2022/04/20 11:56:51;;;;;;;4.40;1.45;;;19.50;76.10;;;;;;5063092;28;20087;-67
2022/04/20 11:59:19;;;;;;;3.83;1.67;;;19.60;76.30;;;;;;5063556;28;20055;-67
2022/04/20 12:01:45;;;;;;;4.20;1.98;;;19.70;76.90;;;;;;5065843;28;20028;-68
2022/04/20 12:04:22;;;;;;;2.92;1.63;;;20.00;80.20;;;;;;5063767;28;20089;-68
2022/04/20 12:06:56;;;;;;;5.22;1.63;;;19.80;74.00;;;;;;5060839;28;20508;-67
2022/04/20 12:09:25;;;;;;;3.10;2.00;;;19.70;75.90;;;;;;5053953;28;20033;-68
2022/04/20 12:11:56;;;;;;;2.72;2.10;;;19.40;75.80;;;;;;5053321;28;20037;-67
2022/04/20 12:14:24;;;;;;;;;;;19.30;77.20;;;;;;5072166;28;20043;-68
2022/04/20 12:16:52;;;;;;;2.60;1.55;;;19.40;76.30;;;;;;5072972;28;20007;-67
2022/04/20 12:19:19;;;;;;;3.17;1.52;;;19.50;80.20;;;;;;5073636;28;20451;-67
2022/04/20 12:21:48;;;;;;;6.75;1.90;;;19.70;80.00;;;;;;5073617;28;20029;-68
2022/04/20 12:24:25;;;;;;;5.88;2.25;;;19.90;80.70;;;;;;5073773;28;20079;-67
2022/04/20 12:26:53;;;;;;;3.60;2.00;;;19.60;79.30;;;;;;5073964;28;20036;-67
2022/04/20 12:29:21;;;;;;;3.55;2.08;;;19.40;78.60;;;;;;5073105;28;20044;-67
2022/04/20 12:31:49;;;;;;;5.55;2.05;;;19.40;79.00;;;;;;5056425;28;20045;-67
2022/04/20 12:34:17;;;;;;;4.28;2.05;;;19.60;77.20;;;;;;5053675;28;20037;-67
2022/04/20 12:37:08;;;;;;;2.63;1.73;;;19.70;78.70;;;;;;5053556;28;20033;-67
2022/04/20 12:39:39;;;;;;;6.32;2.08;;;20.20;79.10;;;;;;5060297;28;20102;-67
2022/04/20 12:42:13;;;;;;;3.83;1.98;;;19.90;77.80;;;;;;5053607;28;20032;-68
2022/04/20 12:44:51;;;;;;;2.55;1.60;;;19.80;78.70;;;;;;5053154;28;20045;-68
2022/04/20 12:47:17;;;;;;;5.20;2.13;;;19.70;82.80;;;;;;5054886;28;20044;-68
2022/04/20 12:49:52;;;;;;;3.85;2.38;;;20.10;80.50;;;;;;5051496;28;20052;-68
2022/04/20 12:52:26;;;;;;;5.10;1.95;;;20.20;79.70;;;;;;5051304;28;20091;-67
2022/04/20 12:54:54;;;;;;;3.05;1.95;;;20.20;77.30;;;;;;5051177;28;20404;-67
2022/04/20 13:02:56;;;;;;;8.52;2.20;;;19.50;76.70;;;;;;5050775;28;20095;-67
2022/04/20 13:05:22;;;;;;;6.63;2.60;;;19.20;77.00;;;;;;5050752;28;20033;-67
2022/04/20 13:07:48;;;;;;;3.95;2.33;;;19.10;76.60;;;;;;5051769;28;20102;-67
2022/04/20 13:10:13;;;;;;;5.78;2.42;;;19.40;80.40;;;;;;5050836;28;20052;-68
2022/04/20 13:12:56;;;;;;;7.22;2.20;;;19.50;75.90;;;;;;5051053;28;20091;-68
2022/04/20 13:15:23;;;;;;;2.65;1.45;;;19.60;76.90;;;;;;5050916;28;20479;-68
2022/04/20 13:17:51;;;;;;;4.95;2.33;;;19.60;75.60;;;;;;5050408;28;20088;-68
2022/04/20 13:20:17;;;;;;;3.30;2.35;;;19.60;75.30;;;;;;5050507;28;20546;-68
2022/04/20 13:22:43;;;;;;;5.25;2.20;;;19.30;76.90;;;;;;5050656;28;20036;-68
2022/04/20 13:27:54;;;;;;;4.45;2.05;;;19.10;76.70;;;;;;5050135;28;20040;-68
2022/04/20 13:30:35;;;;;;;6.03;1.98;;;19.10;75.50;;;;;;5050561;28;20045;-68
2022/04/20 13:33:06;;;;;;;7.10;2.20;;;19.30;76.10;;;;;;5050669;28;20509;-68
2022/04/20 13:35:32;;;;;;;3.60;1.73;;;19.40;75.60;;;;;;5051558;28;20501;-68